createdAt,value
2018-12-08T00:00:38.761Z,6.20
2018-12-08T00:03:05.476Z,6.20
2018-12-08T00:05:31.470Z,6.10
2018-12-08T00:07:57.446Z,6.10
2018-12-08T00:10:24.180Z,6.10
2018-12-08T00:12:50.887Z,6.10
2018-12-08T00:15:16.985Z,6.10
2018-12-08T00:17:42.907Z,6.10
2018-12-08T00:20:08.936Z,6.10
2018-12-08T00:22:34.905Z,6.10
2018-12-08T00:25:01.179Z,6.00
2018-12-08T00:27:27.151Z,6.00
2018-12-08T00:29:53.119Z,6.00
2018-12-08T00:32:19.098Z,5.90
2018-12-08T00:34:45.079Z,5.90
2018-12-08T00:37:11.073Z,5.90
2018-12-08T00:39:37.771Z,5.80
2018-12-08T00:42:03.766Z,5.80
2018-12-08T00:44:29.732Z,5.80
2018-12-08T00:46:55.703Z,5.80
2018-12-08T00:49:21.669Z,5.80
2018-12-08T00:51:47.650Z,5.80
2018-12-08T00:54:13.629Z,5.80
2018-12-08T00:56:39.613Z,5.80
2018-12-08T00:59:05.565Z,5.80
2018-12-08T01:01:31.558Z,5.80
2018-12-08T01:03:57.521Z,5.80
2018-12-08T01:06:24.241Z,5.70
2018-12-08T01:08:50.248Z,5.70
2018-12-08T01:11:16.236Z,5.70
2018-12-08T01:13:42.219Z,5.60
2018-12-08T01:16:08.195Z,5.60
2018-12-08T01:18:34.173Z,5.60
2018-12-08T01:21:00.119Z,5.60
2018-12-08T01:23:26.853Z,5.60
2018-12-08T01:25:53.548Z,5.60
2018-12-08T01:28:19.562Z,5.60
2018-12-08T01:30:45.510Z,5.70
2018-12-08T01:33:11.488Z,5.70
2018-12-08T01:35:37.470Z,5.70
2018-12-08T01:38:03.444Z,5.80
2018-12-08T01:40:29.392Z,5.90
2018-12-08T01:42:55.359Z,5.90
2018-12-08T01:45:22.104Z,6.00
2018-12-08T01:47:48.069Z,6.00
2018-12-08T01:50:14.048Z,6.00
2018-12-08T01:52:40.734Z,6.10
2018-12-08T01:55:06.720Z,6.00
2018-12-08T01:57:32.700Z,6.00
2018-12-08T01:59:58.684Z,6.00
2018-12-08T02:02:24.660Z,6.00
2018-12-08T02:04:50.621Z,6.00
2018-12-08T02:07:16.591Z,6.10
2018-12-08T02:09:42.587Z,6.10
2018-12-08T02:12:08.535Z,6.10
2018-12-08T02:14:34.520Z,6.10
2018-12-08T02:17:00.496Z,6.10
2018-12-08T02:19:27.298Z,6.10
2018-12-08T02:21:53.270Z,6.10
2018-12-08T02:24:19.272Z,6.20
2018-12-08T02:26:46.002Z,6.20
2018-12-08T02:29:11.974Z,6.20
2018-12-08T02:31:37.963Z,6.30
2018-12-08T02:34:04.672Z,6.30
2018-12-08T02:36:30.650Z,6.30
2018-12-08T02:38:56.686Z,6.40
2018-12-08T02:41:22.691Z,6.40
2018-12-08T02:43:48.673Z,6.30
2018-12-08T02:46:16.538Z,6.30
2018-12-08T02:48:40.660Z,6.30
2018-12-08T02:51:07.386Z,6.30
2018-12-08T02:53:34.088Z,6.40
2018-12-08T02:56:00.069Z,6.40
2018-12-08T02:58:26.049Z,6.40
2018-12-08T03:00:52.039Z,6.40
2018-12-08T03:03:18.008Z,6.40
2018-12-08T03:05:43.959Z,6.40
2018-12-08T03:08:10.681Z,6.40
2018-12-08T03:10:37.377Z,6.40
2018-12-08T03:13:03.352Z,6.40
2018-12-08T03:15:30.055Z,6.50
2018-12-08T03:17:56.041Z,6.50
2018-12-08T03:20:21.993Z,6.40
2018-12-08T03:22:47.984Z,6.40
2018-12-08T03:25:13.951Z,6.40
2018-12-08T03:27:39.930Z,6.40
2018-12-08T03:30:05.902Z,6.50
2018-12-08T03:32:31.905Z,6.50
2018-12-08T03:34:57.872Z,6.50
2018-12-08T03:37:24.604Z,6.50
2018-12-08T03:39:51.488Z,6.50
2018-12-08T03:42:17.395Z,6.40
2018-12-08T03:44:43.380Z,6.50
2018-12-08T03:47:10.102Z,6.40
2018-12-08T03:49:36.109Z,6.40
2018-12-08T03:52:02.083Z,6.40
2018-12-08T03:54:28.075Z,6.40
2018-12-08T03:56:54.041Z,6.40
2018-12-08T03:59:20.026Z,6.50
2018-12-08T04:01:45.999Z,6.40
2018-12-08T04:04:11.982Z,6.50
2018-12-08T04:06:37.927Z,6.60
2018-12-08T04:09:04.659Z,6.60
2018-12-08T04:11:31.346Z,6.50
2018-12-08T04:13:57.334Z,6.50
2018-12-08T04:16:23.285Z,6.50
2018-12-08T04:18:49.304Z,6.50
2018-12-08T04:21:15.284Z,6.50
2018-12-08T04:23:41.986Z,6.40
2018-12-08T04:26:07.996Z,6.40
2018-12-08T04:28:33.979Z,6.40
2018-12-08T04:31:00.685Z,6.60
2018-12-08T04:33:26.640Z,6.50
2018-12-08T04:35:54.608Z,6.70
2018-12-08T04:38:19.386Z,6.70
2018-12-08T04:40:45.366Z,6.70
2018-12-08T04:43:11.327Z,6.70
2018-12-08T04:45:37.313Z,6.60
2018-12-08T04:48:03.279Z,6.60
2018-12-08T04:50:30.007Z,6.50
2018-12-08T04:52:55.945Z,6.50
2018-12-08T04:55:21.920Z,6.50
2018-12-08T04:57:47.883Z,6.50
2018-12-08T05:00:13.939Z,6.50
2018-12-08T05:02:39.903Z,6.60
2018-12-08T05:05:05.879Z,6.70
2018-12-08T05:07:31.880Z,6.70
2018-12-08T05:09:57.833Z,6.70
2018-12-08T05:12:23.831Z,6.70
2018-12-08T05:14:50.534Z,6.70
2018-12-08T05:17:16.537Z,6.60
2018-12-08T05:19:42.494Z,6.70
2018-12-08T05:22:08.488Z,6.70
2018-12-08T05:24:34.450Z,6.80
2018-12-08T05:27:00.449Z,6.80
2018-12-08T05:29:26.414Z,6.90
2018-12-08T05:31:53.145Z,6.90
2018-12-08T05:34:19.090Z,6.90
2018-12-08T05:36:45.815Z,6.90
2018-12-08T05:39:11.795Z,6.90
2018-12-08T05:41:37.777Z,6.90
2018-12-08T05:44:04.475Z,6.90
2018-12-08T05:46:30.529Z,6.90
2018-12-08T05:48:56.470Z,6.90
2018-12-08T05:51:22.431Z,6.90
2018-12-08T05:53:49.044Z,6.90
2018-12-08T05:56:15.010Z,6.90
2018-12-08T05:58:41.752Z,6.90
2018-12-08T06:01:07.734Z,6.90
2018-12-08T06:03:34.496Z,6.90
2018-12-08T06:06:00.495Z,6.80
2018-12-08T06:08:26.472Z,6.90
2018-12-08T06:10:53.280Z,6.90
2018-12-08T06:13:19.266Z,6.90
2018-12-08T06:15:45.244Z,7.00
2018-12-08T06:18:11.254Z,7.00
2018-12-08T06:20:37.257Z,7.00
2018-12-08T06:23:03.192Z,7.10
2018-12-08T06:25:29.167Z,7.10
2018-12-08T06:27:55.150Z,7.10
2018-12-08T06:30:21.120Z,7.10
2018-12-08T06:32:47.762Z,7.10
2018-12-08T06:35:13.703Z,7.10
2018-12-08T06:37:39.678Z,7.10
2018-12-08T06:40:06.394Z,7.10
2018-12-08T06:42:32.395Z,7.10
2018-12-08T06:44:58.341Z,7.10
2018-12-08T06:47:24.348Z,7.20
2018-12-08T06:49:50.317Z,7.20
2018-12-08T06:52:17.049Z,7.20
2018-12-08T06:54:43.761Z,7.20
2018-12-08T06:57:09.752Z,7.10
2018-12-08T06:59:35.712Z,7.20
2018-12-08T07:02:01.712Z,7.10
2018-12-08T07:04:27.676Z,7.10
2018-12-08T07:06:53.804Z,7.20
2018-12-08T07:09:19.777Z,7.20
2018-12-08T07:11:46.466Z,7.30
2018-12-08T07:14:12.441Z,7.20
2018-12-08T07:16:38.419Z,7.20
2018-12-08T07:19:05.150Z,7.30
2018-12-08T07:21:31.874Z,7.30
2018-12-08T07:23:57.877Z,7.30
2018-12-08T07:26:23.867Z,7.30
2018-12-08T07:28:49.870Z,7.20
2018-12-08T07:31:16.575Z,7.30
2018-12-08T07:33:42.574Z,7.30
2018-12-08T07:36:08.540Z,7.30
2018-12-08T07:38:34.535Z,7.30
2018-12-08T07:41:00.526Z,7.30
2018-12-08T07:43:26.513Z,7.30
2018-12-08T07:45:53.231Z,7.40
2018-12-08T07:48:19.213Z,7.40
2018-12-08T07:50:45.179Z,7.40
2018-12-08T07:53:11.186Z,7.50
2018-12-08T07:55:37.176Z,7.50
2018-12-08T07:58:03.254Z,7.50
2018-12-08T08:00:29.228Z,7.60
2018-12-08T08:02:55.214Z,7.60
2018-12-08T08:05:21.950Z,7.60
2018-12-08T08:07:47.920Z,7.60
2018-12-08T08:10:13.924Z,7.60
2018-12-08T08:12:39.886Z,7.60
2018-12-08T08:15:05.893Z,7.60
2018-12-08T08:17:31.842Z,7.50
2018-12-08T08:19:57.823Z,7.50
2018-12-08T08:22:23.778Z,7.50
2018-12-08T08:24:49.762Z,7.50
2018-12-08T08:27:16.464Z,7.50
2018-12-08T08:29:42.451Z,7.50
2018-12-08T08:32:08.390Z,7.50
2018-12-08T08:34:34.403Z,7.50
2018-12-08T08:37:00.377Z,7.50
2018-12-08T08:39:26.350Z,7.50
2018-12-08T08:41:52.365Z,7.50
2018-12-08T08:44:18.334Z,7.50
2018-12-08T08:46:44.318Z,7.50
2018-12-08T08:49:10.305Z,7.60
2018-12-08T08:51:37.029Z,7.60
2018-12-08T08:54:03.763Z,7.60
2018-12-08T08:56:29.743Z,7.60
2018-12-08T08:58:55.735Z,7.60
2018-12-08T09:01:22.457Z,7.70
2018-12-08T09:03:48.420Z,7.70
2018-12-08T09:06:14.412Z,7.70
2018-12-08T09:08:41.886Z,8.00
2018-12-08T09:11:08.631Z,7.90
2018-12-08T09:13:34.614Z,7.90
2018-12-08T09:16:00.587Z,7.90
2018-12-08T09:18:27.231Z,7.80
2018-12-08T09:20:53.213Z,7.80
2018-12-08T09:23:19.168Z,7.80
2018-12-08T09:25:45.140Z,7.80
2018-12-08T09:28:11.127Z,7.80
2018-12-08T09:30:37.119Z,7.80
2018-12-08T09:33:03.116Z,7.80
2018-12-08T09:35:29.831Z,7.80
2018-12-08T09:37:55.838Z,7.80
2018-12-08T09:40:21.829Z,7.70
2018-12-08T09:42:47.828Z,7.80
2018-12-08T09:45:13.782Z,7.80
2018-12-08T09:47:39.778Z,7.80
2018-12-08T09:50:06.473Z,7.90
2018-12-08T09:52:32.481Z,7.90
2018-12-08T09:54:58.461Z,8.00
2018-12-08T09:57:25.194Z,8.10
2018-12-08T09:59:51.172Z,8.10
2018-12-08T10:02:17.245Z,8.20
2018-12-08T10:04:43.971Z,8.30
2018-12-08T10:07:09.953Z,8.30
2018-12-08T10:09:35.935Z,8.30
2018-12-08T10:12:02.653Z,8.30
2018-12-08T10:14:28.650Z,8.30
2018-12-08T10:16:54.747Z,8.30
2018-12-08T10:19:20.718Z,8.30
2018-12-08T10:21:46.672Z,8.40
2018-12-08T10:24:13.427Z,8.50
2018-12-08T10:26:39.396Z,8.50
2018-12-08T10:29:05.384Z,8.40
2018-12-08T10:31:31.367Z,8.40
2018-12-08T10:33:57.369Z,8.40
2018-12-08T10:36:23.353Z,8.40
2018-12-08T10:38:49.351Z,8.30
2018-12-08T10:41:16.050Z,8.50
2018-12-08T10:43:42.193Z,8.50
2018-12-08T10:46:08.211Z,8.60
2018-12-08T10:48:34.226Z,8.70
2018-12-08T10:51:00.208Z,8.70
2018-12-08T10:53:26.901Z,8.70
2018-12-08T10:55:52.908Z,8.70
2018-12-08T10:58:18.875Z,8.70
2018-12-08T11:00:45.603Z,8.90
2018-12-08T11:03:12.323Z,9.00
2018-12-08T11:05:38.318Z,9.00
2018-12-08T11:08:04.320Z,9.20
2018-12-08T11:10:30.304Z,9.10
2018-12-08T11:12:57.026Z,9.20
2018-12-08T11:15:23.049Z,9.20
2018-12-08T11:17:49.042Z,9.10
2018-12-08T11:20:15.056Z,9.10
2018-12-08T11:22:41.020Z,9.10
2018-12-08T11:25:06.992Z,9.10
2018-12-08T11:27:32.982Z,9.10
2018-12-08T11:29:58.948Z,9.00
2018-12-08T11:32:25.303Z,9.00
2018-12-08T11:34:51.274Z,9.00
2018-12-08T11:37:17.262Z,8.80
2018-12-08T11:39:43.221Z,8.90
2018-12-08T11:42:09.960Z,9.00
2018-12-08T11:44:36.693Z,9.00
2018-12-08T11:47:02.730Z,9.00
2018-12-08T11:49:29.436Z,9.10
2018-12-08T11:51:55.408Z,9.00
2018-12-08T11:54:21.390Z,9.10
2018-12-08T11:56:47.478Z,9.10
2018-12-08T11:59:13.433Z,9.20
2018-12-08T12:01:39.396Z,9.20
2018-12-08T12:04:05.421Z,9.10
2018-12-08T12:06:32.124Z,9.10
2018-12-08T12:08:58.112Z,9.10
2018-12-08T12:11:24.094Z,9.10
2018-12-08T12:13:50.829Z,9.00
2018-12-08T12:16:17.563Z,9.00
2018-12-08T12:18:43.558Z,9.00
2018-12-08T12:21:09.531Z,9.00
2018-12-08T12:23:36.260Z,9.10
2018-12-08T12:26:03.319Z,9.10
2018-12-08T12:28:30.039Z,9.10
2018-12-08T12:30:56.762Z,9.10
2018-12-08T12:33:23.152Z,9.10
2018-12-08T12:35:49.848Z,9.10
2018-12-08T12:38:15.797Z,9.10
2018-12-08T12:40:41.804Z,9.10
2018-12-08T12:43:08.503Z,9.10
2018-12-08T12:45:34.533Z,9.10
2018-12-08T12:48:00.529Z,9.10
2018-12-08T12:50:26.520Z,9.10
2018-12-08T12:52:53.231Z,9.00
2018-12-08T12:55:19.218Z,9.00
2018-12-08T12:57:45.212Z,9.00
2018-12-08T13:00:11.215Z,9.00
2018-12-08T13:02:37.972Z,9.00
2018-12-08T13:05:03.953Z,8.90
2018-12-08T13:07:30.680Z,8.90
2018-12-08T13:09:56.664Z,8.90
2018-12-08T13:12:23.426Z,8.90
2018-12-08T13:14:49.379Z,8.90
2018-12-08T13:17:15.413Z,8.90
2018-12-08T13:19:41.391Z,8.90
2018-12-08T13:22:07.421Z,9.00
2018-12-08T13:24:33.410Z,9.00
2018-12-08T13:27:00.233Z,9.10
2018-12-08T13:29:27.715Z,9.10
2018-12-08T13:31:52.992Z,9.10
2018-12-08T13:34:18.990Z,9.10
2018-12-08T13:36:44.969Z,9.00
2018-12-08T13:39:11.706Z,9.00
2018-12-08T13:41:38.423Z,9.00
2018-12-08T13:44:04.434Z,8.90
2018-12-08T13:46:30.398Z,8.90
2018-12-08T13:48:57.110Z,8.90
2018-12-08T13:51:23.107Z,8.90
2018-12-08T13:53:49.109Z,8.90
2018-12-08T13:56:15.128Z,8.90
2018-12-08T13:58:41.089Z,8.90
2018-12-08T14:01:07.110Z,8.80
2018-12-08T14:03:33.064Z,8.90
2018-12-08T14:05:59.807Z,8.80
2018-12-08T14:08:26.535Z,8.80
2018-12-08T14:10:52.522Z,8.80
2018-12-08T14:13:18.530Z,8.80
2018-12-08T14:15:44.542Z,8.70
2018-12-08T14:18:10.516Z,8.80
2018-12-08T14:20:36.595Z,8.80
2018-12-08T14:23:02.554Z,8.80
2018-12-08T14:25:29.282Z,8.90
2018-12-08T14:27:55.276Z,8.90
2018-12-08T14:30:21.235Z,9.00
2018-12-08T14:32:47.224Z,9.00
2018-12-08T14:35:13.203Z,9.00
2018-12-08T14:37:39.164Z,9.00
2018-12-08T14:40:05.156Z,9.00
2018-12-08T14:42:31.898Z,9.10
2018-12-08T14:44:57.898Z,9.10
2018-12-08T14:47:23.913Z,9.20
2018-12-08T14:49:49.878Z,9.10
2018-12-08T14:52:16.813Z,9.10
2018-12-08T14:54:43.539Z,9.20
2018-12-08T14:57:09.491Z,9.10
2018-12-08T14:59:36.224Z,9.10
2018-12-08T15:02:02.927Z,9.20
2018-12-08T15:04:29.723Z,9.10
2018-12-08T15:06:55.741Z,9.10
2018-12-08T15:09:22.461Z,9.10
2018-12-08T15:11:48.454Z,9.00
2018-12-08T15:14:14.457Z,9.10
2018-12-08T15:16:40.428Z,9.10
2018-12-08T15:19:06.414Z,9.10
2018-12-08T15:21:32.383Z,9.10
2018-12-08T15:23:58.396Z,9.10
2018-12-08T15:26:24.364Z,9.10
2018-12-08T15:28:51.100Z,9.00
2018-12-08T15:31:17.090Z,9.00
2018-12-08T15:33:43.089Z,9.10
2018-12-08T15:36:09.102Z,9.00
2018-12-08T15:38:35.094Z,9.00
2018-12-08T15:41:01.091Z,9.00
2018-12-08T15:43:27.805Z,8.90
2018-12-08T15:45:54.563Z,8.90
2018-12-08T15:48:21.270Z,8.90
2018-12-08T15:50:47.265Z,8.90
2018-12-08T15:53:13.261Z,8.90
2018-12-08T15:55:39.271Z,8.90
2018-12-08T15:58:05.977Z,9.00
2018-12-08T16:00:31.964Z,9.00
2018-12-08T16:02:57.973Z,9.00
2018-12-08T16:05:23.980Z,9.00
2018-12-08T16:07:50.699Z,9.00
2018-12-08T16:10:16.679Z,9.00
2018-12-08T16:12:42.669Z,9.00
2018-12-08T16:15:09.368Z,9.00
2018-12-08T16:17:35.347Z,9.00
2018-12-08T16:20:01.336Z,9.00
2018-12-08T16:22:27.327Z,9.00
2018-12-08T16:24:53.316Z,9.10
2018-12-08T16:27:19.385Z,9.00
2018-12-08T16:29:46.172Z,9.00
2018-12-08T16:32:12.178Z,9.00
2018-12-08T16:34:38.136Z,9.00
2018-12-08T16:37:04.099Z,9.00
2018-12-08T16:39:30.071Z,8.90
2018-12-08T16:41:56.036Z,8.90
2018-12-08T16:44:22.035Z,9.00
2018-12-08T16:46:47.997Z,9.00
2018-12-08T16:49:13.990Z,9.00
2018-12-08T16:51:39.946Z,8.90
2018-12-08T16:54:05.925Z,9.00
2018-12-08T16:56:31.904Z,8.90
2018-12-08T16:58:57.900Z,8.90
2018-12-08T17:01:23.864Z,8.80
2018-12-08T17:03:49.847Z,8.80
2018-12-08T17:06:15.843Z,8.70
2018-12-08T17:08:41.814Z,8.70
2018-12-08T17:11:07.808Z,8.70
2018-12-08T17:13:33.763Z,8.60
2018-12-08T17:15:59.766Z,8.70
2018-12-08T17:18:25.737Z,8.60
2018-12-08T17:20:51.726Z,8.60
2018-12-08T17:23:17.686Z,8.60
2018-12-08T17:25:43.679Z,8.50
2018-12-08T17:28:10.405Z,8.50
2018-12-08T17:30:36.389Z,8.50
2018-12-08T17:33:02.397Z,8.50
2018-12-08T17:35:28.400Z,8.60
2018-12-08T17:37:55.110Z,8.70
2018-12-08T17:40:21.127Z,8.60
2018-12-08T17:42:47.111Z,8.60
2018-12-08T17:45:13.446Z,8.60
2018-12-08T17:47:39.429Z,8.60
2018-12-08T17:50:06.226Z,8.60
2018-12-08T17:52:32.211Z,8.60
2018-12-08T17:54:58.910Z,8.60
2018-12-08T17:57:24.921Z,8.60
2018-12-08T17:59:50.908Z,8.60
2018-12-08T18:02:17.651Z,8.70
2018-12-08T18:04:43.613Z,8.70
2018-12-08T18:07:09.630Z,8.70
2018-12-08T18:09:35.638Z,8.70
2018-12-08T18:12:01.723Z,8.70
2018-12-08T18:14:27.786Z,8.70
2018-12-08T18:16:53.789Z,8.70
2018-12-08T18:19:19.789Z,8.80
2018-12-08T18:21:46.018Z,8.80
2018-12-08T18:24:12.694Z,8.90
2018-12-08T18:26:38.627Z,8.80
2018-12-08T18:29:04.624Z,8.90
2018-12-08T18:31:30.588Z,8.90
2018-12-08T18:33:56.570Z,8.90
2018-12-08T18:36:22.548Z,8.90
2018-12-08T18:38:48.537Z,8.80
2018-12-08T18:41:14.518Z,8.70
2018-12-08T18:43:41.289Z,8.70
2018-12-08T18:46:07.283Z,8.70
2018-12-08T18:48:33.347Z,8.70
2018-12-08T18:50:59.393Z,8.70
2018-12-08T18:53:25.349Z,8.70
2018-12-08T18:55:52.144Z,8.60
2018-12-08T18:58:18.120Z,8.60
2018-12-08T19:00:44.876Z,8.60
2018-12-08T19:03:10.838Z,8.60
2018-12-08T19:05:36.840Z,8.60
2018-12-08T19:08:02.824Z,8.60
2018-12-08T19:10:28.820Z,8.60
2018-12-08T19:12:54.796Z,8.60
2018-12-08T19:15:21.506Z,8.60
2018-12-08T19:17:48.281Z,8.60
2018-12-08T19:20:14.246Z,8.60
2018-12-08T19:22:40.236Z,8.60
2018-12-08T19:25:06.227Z,8.60
2018-12-08T19:27:32.930Z,8.50
2018-12-08T19:29:58.937Z,8.50
2018-12-08T19:32:24.917Z,8.50
2018-12-08T19:34:51.651Z,8.40
2018-12-08T19:37:17.616Z,8.40
2018-12-08T19:39:43.628Z,8.30
2018-12-08T19:42:09.587Z,8.30
2018-12-08T19:44:35.583Z,8.20
2018-12-08T19:47:01.585Z,8.20
2018-12-08T19:49:27.660Z,8.20
2018-12-08T19:51:53.716Z,8.10
2018-12-08T19:54:20.523Z,8.10
2018-12-08T19:56:46.531Z,8.10
2018-12-08T19:59:12.511Z,8.10
2018-12-08T20:01:39.242Z,8.10
2018-12-08T20:04:05.965Z,8.10
2018-12-08T20:06:31.963Z,8.10
2018-12-08T20:08:57.924Z,8.10
2018-12-08T20:11:24.677Z,8.20
2018-12-08T20:13:50.696Z,8.10
2018-12-08T20:16:17.442Z,8.20
2018-12-08T20:18:44.165Z,8.20
2018-12-08T20:21:10.167Z,8.20
2018-12-08T20:23:36.166Z,8.20
2018-12-08T20:26:02.174Z,8.20
2018-12-08T20:28:28.146Z,8.30
2018-12-08T20:30:54.137Z,8.30
2018-12-08T20:33:20.110Z,8.30
2018-12-08T20:35:46.851Z,8.40
2018-12-08T20:38:13.579Z,8.40
2018-12-08T20:40:39.581Z,8.40
2018-12-08T20:43:05.543Z,8.40
2018-12-08T20:45:32.268Z,8.50
2018-12-08T20:47:59.026Z,8.50
2018-12-08T20:50:25.743Z,8.50
2018-12-08T20:52:51.746Z,8.50
2018-12-08T20:55:17.723Z,8.50
2018-12-08T20:57:44.445Z,8.60
2018-12-08T21:00:17.327Z,8.50
2018-12-08T21:02:44.069Z,8.60
2018-12-08T21:05:10.017Z,8.60
2018-12-08T21:07:36.021Z,8.60
2018-12-08T21:10:02.747Z,8.70
2018-12-08T21:12:28.732Z,8.70
2018-12-08T21:14:54.704Z,8.70
2018-12-08T21:17:21.439Z,8.80
2018-12-08T21:19:48.188Z,8.90
2018-12-08T21:22:14.901Z,8.90
2018-12-08T21:24:40.879Z,8.80
2018-12-08T21:27:06.819Z,8.90
2018-12-08T21:29:32.854Z,8.90
2018-12-08T21:31:58.817Z,9.00
2018-12-08T21:34:24.825Z,9.00
2018-12-08T21:36:50.789Z,9.00
2018-12-08T21:39:16.801Z,9.10
2018-12-08T21:41:43.552Z,9.20
2018-12-08T21:44:09.538Z,9.10
2018-12-08T21:46:35.488Z,9.20
2018-12-08T21:49:02.189Z,9.30
2018-12-08T21:51:28.945Z,9.30
2018-12-08T21:53:55.670Z,9.40
2018-12-08T21:56:22.419Z,9.40
2018-12-08T21:58:48.408Z,9.40
2018-12-08T22:01:14.385Z,9.40
2018-12-08T22:03:40.354Z,9.40
2018-12-08T22:06:06.332Z,9.40
2018-12-08T22:08:33.049Z,9.40
2018-12-08T22:10:59.056Z,9.30
2018-12-08T22:13:25.067Z,9.40
2018-12-08T22:15:51.082Z,9.30
2018-12-08T22:18:17.103Z,9.30
2018-12-08T22:20:43.263Z,9.20
2018-12-08T22:23:09.228Z,9.20
2018-12-08T22:25:36.102Z,9.20
2018-12-08T22:28:02.086Z,9.20
2018-12-08T22:30:28.831Z,9.10
2018-12-08T22:32:54.876Z,9.10
2018-12-08T22:35:20.880Z,9.00
2018-12-08T22:37:46.868Z,8.90
2018-12-08T22:40:12.838Z,8.90
2018-12-08T22:42:38.862Z,8.70
2018-12-08T22:45:04.887Z,8.60
2018-12-08T22:47:30.883Z,8.60
2018-12-08T22:49:57.603Z,8.40
2018-12-08T22:52:23.618Z,8.40
2018-12-08T22:54:49.673Z,8.30
2018-12-08T22:57:15.652Z,8.30
2018-12-08T22:59:41.631Z,8.30
2018-12-08T23:02:07.666Z,8.20
2018-12-08T23:04:33.648Z,8.20
2018-12-08T23:06:59.611Z,8.20
2018-12-08T23:09:25.598Z,8.20
2018-12-08T23:11:51.546Z,8.10
2018-12-08T23:14:17.559Z,8.10
2018-12-08T23:16:44.273Z,8.10
2018-12-08T23:19:10.276Z,8.10
2018-12-08T23:21:36.233Z,8.20
2018-12-08T23:24:02.972Z,8.20
2018-12-08T23:26:28.973Z,8.20
2018-12-08T23:28:54.987Z,8.20
2018-12-08T23:31:20.919Z,8.20
2018-12-08T23:33:46.924Z,8.30
2018-12-08T23:36:12.941Z,8.30
2018-12-08T23:38:38.971Z,8.30
2018-12-08T23:41:04.964Z,8.30
2018-12-08T23:43:30.965Z,8.40
2018-12-08T23:45:57.700Z,8.30
2018-12-08T23:48:23.656Z,8.30
2018-12-08T23:50:49.677Z,8.30
2018-12-08T23:53:15.642Z,8.30
2018-12-08T23:55:41.616Z,8.30
2018-12-08T23:58:07.620Z,8.30
